sensor_id;sensor_type;location;lat;lon;timestamp;P1;durP1;ratioP1;P2;durP2;ratioP2
3997;SDS011;61314;53.444;9.902;2023-04-26T00:00:36;10.73;;;2.90;;
3997;SDS011;61314;53.444;9.902;2023-04-26T00:03:03;10.85;;;2.63;;
3997;SDS011;61314;53.444;9.902;2023-04-26T00:05:32;3.38;;;2.50;;
3997;SDS011;61314;53.444;9.902;2023-04-26T00:08:00;11.75;;;2.55;;
3997;SDS011;61314;53.444;9.902;2023-04-26T00:10:29;12.77;;;3.45;;
3997;SDS011;61314;53.444;9.902;2023-04-26T00:12:56;9.77;;;3.40;;
3997;SDS011;61314;53.444;9.902;2023-04-26T00:15:23;9.02;;;4.38;;
3997;SDS011;61314;53.444;9.902;2023-04-26T00:17:50;14.35;;;3.90;;
3997;SDS011;61314;53.444;9.902;2023-04-26T00:20:18;12.25;;;2.80;;
3997;SDS011;61314;53.444;9.902;2023-04-26T00:22:45;18.38;;;3.03;;
3997;SDS011;61314;53.444;9.902;2023-04-26T00:25:12;12.30;;;3.08;;
3997;SDS011;61314;53.444;9.902;2023-04-26T00:27:39;6.53;;;2.55;;
3997;SDS011;61314;53.444;9.902;2023-04-26T00:30:06;11.30;;;3.58;;
3997;SDS011;61314;53.444;9.902;2023-04-26T00:32:34;21.20;;;3.20;;
3997;SDS011;61314;53.444;9.902;2023-04-26T00:35:04;14.00;;;3.53;;
3997;SDS011;61314;53.444;9.902;2023-04-26T00:37:31;9.43;;;3.75;;
3997;SDS011;61314;53.444;9.902;2023-04-26T00:39:58;8.95;;;4.03;;
3997;SDS011;61314;53.444;9.902;2023-04-26T00:42:25;9.60;;;2.65;;
3997;SDS011;61314;53.444;9.902;2023-04-26T00:44:53;7.75;;;3.20;;
3997;SDS011;61314;53.444;9.902;2023-04-26T00:47:23;12.65;;;3.35;;
3997;SDS011;61314;53.444;9.902;2023-04-26T00:49:50;12.38;;;3.15;;
3997;SDS011;61314;53.444;9.902;2023-04-26T00:52:18;8.32;;;3.03;;
3997;SDS011;61314;53.444;9.902;2023-04-26T00:54:45;14.85;;;3.78;;
3997;SDS011;61314;53.444;9.902;2023-04-26T00:57:12;4.90;;;3.92;;
3997;SDS011;61314;53.444;9.902;2023-04-26T00:59:39;13.90;;;3.17;;
3997;SDS011;61314;53.444;9.902;2023-04-26T01:02:06;10.07;;;3.80;;
3997;SDS011;61314;53.444;9.902;2023-04-26T01:04:34;12.43;;;3.92;;
3997;SDS011;61314;53.444;9.902;2023-04-26T01:07:02;10.20;;;3.30;;
3997;SDS011;61314;53.444;9.902;2023-04-26T01:09:29;11.38;;;3.55;;
3997;SDS011;61314;53.444;9.902;2023-04-26T01:11:57;7.60;;;4.05;;
3997;SDS011;61314;53.444;9.902;2023-04-26T01:14:25;7.82;;;3.22;;
3997;SDS011;61314;53.444;9.902;2023-04-26T01:16:52;6.88;;;3.15;;
3997;SDS011;61314;53.444;9.902;2023-04-26T01:19:20;6.22;;;3.53;;
3997;SDS011;61314;53.444;9.902;2023-04-26T01:21:48;9.40;;;3.60;;
3997;SDS011;61314;53.444;9.902;2023-04-26T01:24:15;10.63;;;3.95;;
3997;SDS011;61314;53.444;9.902;2023-04-26T01:26:42;9.50;;;3.95;;
3997;SDS011;61314;53.444;9.902;2023-04-26T01:29:18;8.27;;;3.40;;
3997;SDS011;61314;53.444;9.902;2023-04-26T01:31:45;9.60;;;3.40;;
3997;SDS011;61314;53.444;9.902;2023-04-26T01:34:13;17.25;;;3.42;;
3997;SDS011;61314;53.444;9.902;2023-04-26T01:36:40;13.88;;;4.13;;
3997;SDS011;61314;53.444;9.902;2023-04-26T01:39:07;12.20;;;3.67;;
3997;SDS011;61314;53.444;9.902;2023-04-26T01:41:35;7.47;;;3.80;;
3997;SDS011;61314;53.444;9.902;2023-04-26T01:44:02;15.48;;;4.07;;
3997;SDS011;61314;53.444;9.902;2023-04-26T01:46:29;7.05;;;3.67;;
3997;SDS011;61314;53.444;9.902;2023-04-26T01:48:56;22.77;;;5.18;;
3997;SDS011;61314;53.444;9.902;2023-04-26T01:51:23;9.50;;;3.92;;
3997;SDS011;61314;53.444;9.902;2023-04-26T01:53:51;15.70;;;4.00;;
3997;SDS011;61314;53.444;9.902;2023-04-26T01:56:18;7.78;;;4.10;;
3997;SDS011;61314;53.444;9.902;2023-04-26T01:58:45;6.93;;;3.83;;
3997;SDS011;61314;53.444;9.902;2023-04-26T02:01:12;11.85;;;3.85;;
3997;SDS011;61314;53.444;9.902;2023-04-26T02:03:39;8.95;;;3.63;;
3997;SDS011;61314;53.444;9.902;2023-04-26T02:06:07;14.88;;;4.32;;
3997;SDS011;61314;53.444;9.902;2023-04-26T02:08:34;10.88;;;3.72;;
3997;SDS011;61314;53.444;9.902;2023-04-26T02:11:01;13.73;;;4.63;;
3997;SDS011;61314;53.444;9.902;2023-04-26T02:13:28;10.27;;;4.63;;
3997;SDS011;61314;53.444;9.902;2023-04-26T02:15:56;19.40;;;4.32;;
3997;SDS011;61314;53.444;9.902;2023-04-26T02:18:23;8.68;;;3.80;;
3997;SDS011;61314;53.444;9.902;2023-04-26T02:20:50;13.90;;;3.97;;
3997;SDS011;61314;53.444;9.902;2023-04-26T02:23:17;7.40;;;4.35;;
3997;SDS011;61314;53.444;9.902;2023-04-26T02:25:44;4.28;;;3.30;;
3997;SDS011;61314;53.444;9.902;2023-04-26T02:28:14;10.20;;;4.18;;
3997;SDS011;61314;53.444;9.902;2023-04-26T02:30:42;9.75;;;3.85;;
3997;SDS011;61314;53.444;9.902;2023-04-26T02:33:09;11.10;;;3.40;;
3997;SDS011;61314;53.444;9.902;2023-04-26T02:35:37;14.77;;;4.95;;
3997;SDS011;61314;53.444;9.902;2023-04-26T02:38:05;13.85;;;3.97;;
3997;SDS011;61314;53.444;9.902;2023-04-26T02:40:32;14.77;;;4.45;;
3997;SDS011;61314;53.444;9.902;2023-04-26T02:42:59;5.93;;;3.78;;
3997;SDS011;61314;53.444;9.902;2023-04-26T02:45:26;11.73;;;3.22;;
3997;SDS011;61314;53.444;9.902;2023-04-26T02:47:53;15.63;;;4.28;;
3997;SDS011;61314;53.444;9.902;2023-04-26T02:50:20;9.52;;;3.95;;
3997;SDS011;61314;53.444;9.902;2023-04-26T02:52:47;3.95;;;3.00;;
3997;SDS011;61314;53.444;9.902;2023-04-26T02:55:14;13.25;;;5.07;;
3997;SDS011;61314;53.444;9.902;2023-04-26T02:57:42;8.38;;;3.42;;
3997;SDS011;61314;53.444;9.902;2023-04-26T03:00:09;7.72;;;3.40;;
3997;SDS011;61314;53.444;9.902;2023-04-26T03:02:38;10.20;;;3.95;;
3997;SDS011;61314;53.444;9.902;2023-04-26T03:05:06;6.68;;;3.60;;
3997;SDS011;61314;53.444;9.902;2023-04-26T03:07:34;5.53;;;3.33;;
3997;SDS011;61314;53.444;9.902;2023-04-26T03:10:01;11.88;;;3.05;;
3997;SDS011;61314;53.444;9.902;2023-04-26T03:12:29;7.20;;;3.33;;
3997;SDS011;61314;53.444;9.902;2023-04-26T03:14:56;11.38;;;3.45;;
3997;SDS011;61314;53.444;9.902;2023-04-26T03:17:23;10.30;;;4.07;;
3997;SDS011;61314;53.444;9.902;2023-04-26T03:19:50;12.57;;;4.20;;
3997;SDS011;61314;53.444;9.902;2023-04-26T03:22:17;7.03;;;3.75;;
3997;SDS011;61314;53.444;9.902;2023-04-26T03:24:44;16.20;;;3.40;;
3997;SDS011;61314;53.444;9.902;2023-04-26T03:27:12;13.85;;;3.90;;
3997;SDS011;61314;53.444;9.902;2023-04-26T03:29:39;13.10;;;3.47;;
3997;SDS011;61314;53.444;9.902;2023-04-26T03:32:09;9.05;;;3.63;;
3997;SDS011;61314;53.444;9.902;2023-04-26T03:34:36;12.40;;;4.18;;
3997;SDS011;61314;53.444;9.902;2023-04-26T03:37:03;8.75;;;3.65;;
3997;SDS011;61314;53.444;9.902;2023-04-26T03:39:30;11.68;;;4.63;;
3997;SDS011;61314;53.444;9.902;2023-04-26T03:41:57;9.50;;;4.05;;
3997;SDS011;61314;53.444;9.902;2023-04-26T03:44:24;7.38;;;3.90;;
3997;SDS011;61314;53.444;9.902;2023-04-26T03:46:53;4.22;;;3.25;;
3997;SDS011;61314;53.444;9.902;2023-04-26T03:49:20;9.10;;;3.80;;
3997;SDS011;61314;53.444;9.902;2023-04-26T03:51:47;13.02;;;4.32;;
3997;SDS011;61314;53.444;9.902;2023-04-26T03:54:14;7.32;;;3.78;;
3997;SDS011;61314;53.444;9.902;2023-04-26T03:56:41;8.68;;;3.58;;
3997;SDS011;61314;53.444;9.902;2023-04-26T03:59:08;11.45;;;3.97;;
3997;SDS011;61314;53.444;9.902;2023-04-26T04:01:35;10.07;;;4.25;;
3997;SDS011;61314;53.444;9.902;2023-04-26T04:04:02;8.52;;;3.90;;
3997;SDS011;61314;53.444;9.902;2023-04-26T04:06:30;10.88;;;5.10;;
3997;SDS011;61314;53.444;9.902;2023-04-26T04:08:58;12.45;;;3.75;;
3997;SDS011;61314;53.444;9.902;2023-04-26T04:11:25;4.60;;;3.20;;
3997;SDS011;61314;53.444;9.902;2023-04-26T04:13:52;11.52;;;3.90;;
3997;SDS011;61314;53.444;9.902;2023-04-26T04:16:19;10.35;;;3.55;;
3997;SDS011;61314;53.444;9.902;2023-04-26T04:18:46;10.88;;;3.83;;
3997;SDS011;61314;53.444;9.902;2023-04-26T04:21:13;12.43;;;3.95;;
3997;SDS011;61314;53.444;9.902;2023-04-26T04:23:41;7.55;;;2.95;;
3997;SDS011;61314;53.444;9.902;2023-04-26T04:26:09;5.78;;;3.63;;
3997;SDS011;61314;53.444;9.902;2023-04-26T04:28:40;9.50;;;3.17;;
3997;SDS011;61314;53.444;9.902;2023-04-26T04:31:07;8.75;;;4.20;;
3997;SDS011;61314;53.444;9.902;2023-04-26T04:33:34;9.38;;;3.58;;
3997;SDS011;61314;53.444;9.902;2023-04-26T04:36:02;11.85;;;3.20;;
3997;SDS011;61314;53.444;9.902;2023-04-26T04:38:29;7.85;;;4.93;;
3997;SDS011;61314;53.444;9.902;2023-04-26T04:40:56;9.52;;;3.90;;
3997;SDS011;61314;53.444;9.902;2023-04-26T04:43:23;9.00;;;3.90;;
3997;SDS011;61314;53.444;9.902;2023-04-26T04:45:50;8.60;;;3.67;;
3997;SDS011;61314;53.444;9.902;2023-04-26T04:48:17;13.95;;;4.13;;
3997;SDS011;61314;53.444;9.902;2023-04-26T04:50:45;10.20;;;4.35;;
3997;SDS011;61314;53.444;9.902;2023-04-26T04:53:12;7.15;;;3.90;;
3997;SDS011;61314;53.444;9.902;2023-04-26T04:55:40;17.75;;;5.95;;
3997;SDS011;61314;53.444;9.902;2023-04-26T04:58:06;7.78;;;4.22;;
3997;SDS011;61314;53.444;9.902;2023-04-26T05:00:33;6.25;;;3.92;;
3997;SDS011;61314;53.444;9.902;2023-04-26T05:03:03;10.52;;;3.65;;
3997;SDS011;61314;53.444;9.902;2023-04-26T05:05:30;11.70;;;5.10;;
3997;SDS011;61314;53.444;9.902;2023-04-26T05:07:57;9.65;;;4.85;;
3997;SDS011;61314;53.444;9.902;2023-04-26T05:10:24;11.85;;;4.50;;
3997;SDS011;61314;53.444;9.902;2023-04-26T05:12:51;11.27;;;4.05;;
3997;SDS011;61314;53.444;9.902;2023-04-26T05:15:18;14.63;;;5.10;;
3997;SDS011;61314;53.444;9.902;2023-04-26T05:17:45;15.63;;;4.60;;
3997;SDS011;61314;53.444;9.902;2023-04-26T05:20:12;14.20;;;4.35;;
3997;SDS011;61314;53.444;9.902;2023-04-26T05:22:39;8.57;;;4.35;;
3997;SDS011;61314;53.444;9.902;2023-04-26T05:25:07;9.25;;;4.35;;
3997;SDS011;61314;53.444;9.902;2023-04-26T05:27:35;6.88;;;4.22;;
3997;SDS011;61314;53.444;9.902;2023-04-26T05:30:06;15.45;;;4.50;;
3997;SDS011;61314;53.444;9.902;2023-04-26T05:32:33;12.45;;;4.03;;
3997;SDS011;61314;53.444;9.902;2023-04-26T05:35:00;10.50;;;4.90;;
3997;SDS011;61314;53.444;9.902;2023-04-26T05:37:27;12.65;;;5.00;;
3997;SDS011;61314;53.444;9.902;2023-04-26T05:39:55;5.72;;;3.45;;
3997;SDS011;61314;53.444;9.902;2023-04-26T05:42:22;14.98;;;4.93;;
3997;SDS011;61314;53.444;9.902;2023-04-26T05:44:48;11.02;;;4.65;;
3997;SDS011;61314;53.444;9.902;2023-04-26T05:47:15;7.18;;;3.63;;
3997;SDS011;61314;53.444;9.902;2023-04-26T05:49:42;6.28;;;4.40;;
3997;SDS011;61314;53.444;9.902;2023-04-26T05:52:09;7.40;;;4.78;;
3997;SDS011;61314;53.444;9.902;2023-04-26T05:54:36;19.25;;;5.30;;
3997;SDS011;61314;53.444;9.902;2023-04-26T05:57:03;18.17;;;5.45;;
3997;SDS011;61314;53.444;9.902;2023-04-26T05:59:34;9.02;;;4.65;;
3997;SDS011;61314;53.444;9.902;2023-04-26T06:02:01;16.05;;;5.43;;
3997;SDS011;61314;53.444;9.902;2023-04-26T06:04:29;14.25;;;4.45;;
3997;SDS011;61314;53.444;9.902;2023-04-26T06:06:57;9.13;;;4.68;;
3997;SDS011;61314;53.444;9.902;2023-04-26T06:09:25;10.50;;;4.78;;
3997;SDS011;61314;53.444;9.902;2023-04-26T06:11:52;13.57;;;4.03;;
3997;SDS011;61314;53.444;9.902;2023-04-26T06:14:19;11.15;;;5.38;;
3997;SDS011;61314;53.444;9.902;2023-04-26T06:16:56;8.52;;;4.90;;
3997;SDS011;61314;53.444;9.902;2023-04-26T06:19:23;13.40;;;5.05;;
3997;SDS011;61314;53.444;9.902;2023-04-26T06:21:50;16.70;;;5.88;;
3997;SDS011;61314;53.444;9.902;2023-04-26T06:24:19;16.73;;;5.47;;
3997;SDS011;61314;53.444;9.902;2023-04-26T06:26:46;17.85;;;5.38;;
3997;SDS011;61314;53.444;9.902;2023-04-26T06:29:13;7.05;;;4.25;;
3997;SDS011;61314;53.444;9.902;2023-04-26T06:31:40;10.30;;;5.78;;
3997;SDS011;61314;53.444;9.902;2023-04-26T06:34:07;10.52;;;5.15;;
3997;SDS011;61314;53.444;9.902;2023-04-26T06:36:34;10.60;;;5.22;;
3997;SDS011;61314;53.444;9.902;2023-04-26T06:39:02;13.60;;;5.22;;
3997;SDS011;61314;53.444;9.902;2023-04-26T06:41:29;6.03;;;4.90;;
3997;SDS011;61314;53.444;9.902;2023-04-26T06:43:56;11.30;;;4.85;;
3997;SDS011;61314;53.444;9.902;2023-04-26T06:46:23;11.45;;;5.82;;
3997;SDS011;61314;53.444;9.902;2023-04-26T06:48:53;10.98;;;4.88;;
3997;SDS011;61314;53.444;9.902;2023-04-26T06:51:21;11.32;;;4.60;;
3997;SDS011;61314;53.444;9.902;2023-04-26T06:53:48;13.70;;;5.15;;
3997;SDS011;61314;53.444;9.902;2023-04-26T06:56:15;11.40;;;5.53;;
3997;SDS011;61314;53.444;9.902;2023-04-26T06:58:57;12.43;;;4.80;;
3997;SDS011;61314;53.444;9.902;2023-04-26T07:01:25;12.93;;;4.85;;
3997;SDS011;61314;53.444;9.902;2023-04-26T07:03:54;17.15;;;4.60;;
3997;SDS011;61314;53.444;9.902;2023-04-26T07:06:25;15.10;;;4.90;;
3997;SDS011;61314;53.444;9.902;2023-04-26T07:08:52;11.40;;;4.70;;
3997;SDS011;61314;53.444;9.902;2023-04-26T07:11:19;23.35;;;5.13;;
3997;SDS011;61314;53.444;9.902;2023-04-26T07:13:50;9.50;;;4.72;;
3997;SDS011;61314;53.444;9.902;2023-04-26T07:16:18;10.93;;;4.05;;
3997;SDS011;61314;53.444;9.902;2023-04-26T07:18:45;7.07;;;4.25;;
3997;SDS011;61314;53.444;9.902;2023-04-26T07:21:13;12.38;;;4.38;;
3997;SDS011;61314;53.444;9.902;2023-04-26T07:23:40;4.53;;;3.72;;
3997;SDS011;61314;53.444;9.902;2023-04-26T07:26:09;9.45;;;3.90;;
3997;SDS011;61314;53.444;9.902;2023-04-26T07:28:36;5.63;;;3.55;;
3997;SDS011;61314;53.444;9.902;2023-04-26T07:31:03;7.43;;;3.60;;
3997;SDS011;61314;53.444;9.902;2023-04-26T07:33:34;9.85;;;3.45;;
3997;SDS011;61314;53.444;9.902;2023-04-26T07:36:01;11.07;;;4.10;;
3997;SDS011;61314;53.444;9.902;2023-04-26T07:38:28;5.63;;;2.90;;
3997;SDS011;61314;53.444;9.902;2023-04-26T07:40:55;6.65;;;3.95;;
3997;SDS011;61314;53.444;9.902;2023-04-26T07:43:23;7.25;;;3.45;;
3997;SDS011;61314;53.444;9.902;2023-04-26T07:45:50;15.30;;;4.15;;
3997;SDS011;61314;53.444;9.902;2023-04-26T07:48:17;6.50;;;3.28;;
3997;SDS011;61314;53.444;9.902;2023-04-26T07:50:44;10.73;;;5.07;;
3997;SDS011;61314;53.444;9.902;2023-04-26T07:53:11;10.63;;;4.20;;
3997;SDS011;61314;53.444;9.902;2023-04-26T07:55:38;12.32;;;4.22;;
3997;SDS011;61314;53.444;9.902;2023-04-26T07:58:05;13.57;;;4.30;;
3997;SDS011;61314;53.444;9.902;2023-04-26T08:00:33;21.27;;;4.60;;
3997;SDS011;61314;53.444;9.902;2023-04-26T08:03:03;11.07;;;5.00;;
3997;SDS011;61314;53.444;9.902;2023-04-26T08:05:30;18.83;;;5.05;;
3997;SDS011;61314;53.444;9.902;2023-04-26T08:07:58;6.70;;;4.18;;
3997;SDS011;61314;53.444;9.902;2023-04-26T08:10:27;10.73;;;4.72;;
3997;SDS011;61314;53.444;9.902;2023-04-26T08:12:55;11.02;;;3.95;;
3997;SDS011;61314;53.444;9.902;2023-04-26T08:15:22;16.98;;;3.75;;
3997;SDS011;61314;53.444;9.902;2023-04-26T08:17:49;10.52;;;3.20;;
3997;SDS011;61314;53.444;9.902;2023-04-26T08:20:18;7.43;;;3.90;;
3997;SDS011;61314;53.444;9.902;2023-04-26T08:22:45;10.82;;;3.60;;
3997;SDS011;61314;53.444;9.902;2023-04-26T08:25:13;16.30;;;4.07;;
3997;SDS011;61314;53.444;9.902;2023-04-26T08:27:41;19.98;;;4.35;;
3997;SDS011;61314;53.444;9.902;2023-04-26T08:30:10;17.85;;;3.65;;
3997;SDS011;61314;53.444;9.902;2023-04-26T08:32:37;7.43;;;3.80;;
3997;SDS011;61314;53.444;9.902;2023-04-26T08:35:04;8.68;;;3.13;;
3997;SDS011;61314;53.444;9.902;2023-04-26T08:37:31;7.10;;;3.80;;
3997;SDS011;61314;53.444;9.902;2023-04-26T08:39:58;13.20;;;3.90;;
3997;SDS011;61314;53.444;9.902;2023-04-26T08:42:26;5.93;;;3.15;;
3997;SDS011;61314;53.444;9.902;2023-04-26T08:44:53;10.95;;;4.10;;
3997;SDS011;61314;53.444;9.902;2023-04-26T08:47:27;8.55;;;3.50;;
3997;SDS011;61314;53.444;9.902;2023-04-26T08:49:59;10.18;;;3.20;;
3997;SDS011;61314;53.444;9.902;2023-04-26T08:52:30;14.98;;;4.20;;
3997;SDS011;61314;53.444;9.902;2023-04-26T08:54:58;9.60;;;2.90;;
3997;SDS011;61314;53.444;9.902;2023-04-26T08:57:26;10.82;;;3.60;;
3997;SDS011;61314;53.444;9.902;2023-04-26T08:59:53;9.77;;;3.95;;
3997;SDS011;61314;53.444;9.902;2023-04-26T09:02:23;15.00;;;3.75;;
3997;SDS011;61314;53.444;9.902;2023-04-26T09:04:50;7.28;;;3.25;;
3997;SDS011;61314;53.444;9.902;2023-04-26T09:07:19;14.90;;;4.15;;
3997;SDS011;61314;53.444;9.902;2023-04-26T09:09:47;6.55;;;3.60;;
3997;SDS011;61314;53.444;9.902;2023-04-26T09:12:19;5.80;;;3.97;;
3997;SDS011;61314;53.444;9.902;2023-04-26T09:14:46;4.80;;;2.95;;
3997;SDS011;61314;53.444;9.902;2023-04-26T09:17:23;11.85;;;3.55;;
3997;SDS011;61314;53.444;9.902;2023-04-26T09:19:51;3.80;;;2.85;;
3997;SDS011;61314;53.444;9.902;2023-04-26T09:22:31;6.30;;;2.47;;
3997;SDS011;61314;53.444;9.902;2023-04-26T09:24:58;8.50;;;2.63;;
3997;SDS011;61314;53.444;9.902;2023-04-26T09:35:21;5.10;;;2.10;;
3997;SDS011;61314;53.444;9.902;2023-04-26T09:37:59;3.45;;;2.35;;
3997;SDS011;61314;53.444;9.902;2023-04-26T09:43:10;4.40;;;2.10;;
3997;SDS011;61314;53.444;9.902;2023-04-26T09:45:44;5.90;;;1.80;;
3997;SDS011;61314;53.444;9.902;2023-04-26T09:48:13;5.70;;;2.50;;
3997;SDS011;61314;53.444;9.902;2023-04-26T09:50:42;6.03;;;2.60;;
3997;SDS011;61314;53.444;9.902;2023-04-26T09:53:23;4.67;;;2.10;;
3997;SDS011;61314;53.444;9.902;2023-04-26T09:55:52;6.90;;;2.43;;
3997;SDS011;61314;53.444;9.902;2023-04-26T09:58:19;6.07;;;2.20;;
3997;SDS011;61314;53.444;9.902;2023-04-26T10:00:49;6.57;;;2.97;;
3997;SDS011;61314;53.444;9.902;2023-04-26T10:03:17;3.07;;;2.20;;
3997;SDS011;61314;53.444;9.902;2023-04-26T10:05:48;3.00;;;2.43;;
3997;SDS011;61314;53.444;9.902;2023-04-26T10:08:15;8.50;;;3.33;;
3997;SDS011;61314;53.444;9.902;2023-04-26T10:10:42;7.27;;;2.10;;
3997;SDS011;61314;53.444;9.902;2023-04-26T10:13:11;4.93;;;1.50;;
3997;SDS011;61314;53.444;9.902;2023-04-26T10:15:38;10.63;;;2.10;;
3997;SDS011;61314;53.444;9.902;2023-04-26T10:18:06;4.88;;;1.65;;
3997;SDS011;61314;53.444;9.902;2023-04-26T10:20:33;4.33;;;1.60;;
3997;SDS011;61314;53.444;9.902;2023-04-26T10:23:02;3.70;;;2.10;;
3997;SDS011;61314;53.444;9.902;2023-04-26T10:25:38;7.75;;;2.17;;
3997;SDS011;61314;53.444;9.902;2023-04-26T10:28:07;3.95;;;1.92;;
3997;SDS011;61314;53.444;9.902;2023-04-26T10:30:52;3.90;;;2.08;;
3997;SDS011;61314;53.444;9.902;2023-04-26T10:33:24;4.65;;;2.13;;
3997;SDS011;61314;53.444;9.902;2023-04-26T10:38:40;2.67;;;1.40;;
3997;SDS011;61314;53.444;9.902;2023-04-26T10:41:26;4.40;;;1.55;;
3997;SDS011;61314;53.444;9.902;2023-04-26T10:43:54;8.93;;;1.50;;
3997;SDS011;61314;53.444;9.902;2023-04-26T10:46:37;7.25;;;2.28;;
3997;SDS011;61314;53.444;9.902;2023-04-26T10:49:18;2.15;;;1.50;;
3997;SDS011;61314;53.444;9.902;2023-04-26T10:52:10;3.58;;;1.40;;
3997;SDS011;61314;53.444;9.902;2023-04-26T10:54:53;4.32;;;1.70;;
3997;SDS011;61314;53.444;9.902;2023-04-26T10:57:21;2.28;;;1.50;;
3997;SDS011;61314;53.444;9.902;2023-04-26T11:08:27;4.05;;;2.30;;
3997;SDS011;61314;53.444;9.902;2023-04-26T11:11:04;6.55;;;2.35;;
3997;SDS011;61314;53.444;9.902;2023-04-26T11:13:34;11.02;;;2.65;;
3997;SDS011;61314;53.444;9.902;2023-04-26T11:16:04;6.45;;;2.60;;
3997;SDS011;61314;53.444;9.902;2023-04-26T11:18:33;3.85;;;2.20;;
3997;SDS011;61314;53.444;9.902;2023-04-26T11:21:01;2.97;;;1.80;;
3997;SDS011;61314;53.444;9.902;2023-04-26T11:23:29;5.28;;;1.95;;
3997;SDS011;61314;53.444;9.902;2023-04-26T11:26:01;4.15;;;1.95;;
3997;SDS011;61314;53.444;9.902;2023-04-26T11:28:29;9.05;;;2.20;;
3997;SDS011;61314;53.444;9.902;2023-04-26T11:30:59;2.20;;;2.00;;
3997;SDS011;61314;53.444;9.902;2023-04-26T11:33:27;4.88;;;2.22;;
3997;SDS011;61314;53.444;9.902;2023-04-26T11:35:54;2.85;;;1.75;;
3997;SDS011;61314;53.444;9.902;2023-04-26T11:38:21;2.97;;;1.55;;
3997;SDS011;61314;53.444;9.902;2023-04-26T11:40:52;5.20;;;2.13;;
3997;SDS011;61314;53.444;9.902;2023-04-26T11:43:35;4.78;;;1.65;;
3997;SDS011;61314;53.444;9.902;2023-04-26T11:46:04;5.85;;;2.90;;
3997;SDS011;61314;53.444;9.902;2023-04-26T11:48:33;4.93;;;2.53;;
3997;SDS011;61314;53.444;9.902;2023-04-26T11:51:04;4.70;;;2.15;;
3997;SDS011;61314;53.444;9.902;2023-04-26T11:53:36;5.88;;;2.03;;
3997;SDS011;61314;53.444;9.902;2023-04-26T11:56:18;4.10;;;2.50;;
3997;SDS011;61314;53.444;9.902;2023-04-26T12:01:20;8.32;;;2.95;;
3997;SDS011;61314;53.444;9.902;2023-04-26T12:03:55;2.00;;;1.90;;
3997;SDS011;61314;53.444;9.902;2023-04-26T12:06:42;6.47;;;2.53;;
3997;SDS011;61314;53.444;9.902;2023-04-26T12:09:10;6.13;;;2.63;;
3997;SDS011;61314;53.444;9.902;2023-04-26T12:11:38;4.78;;;2.30;;
3997;SDS011;61314;53.444;9.902;2023-04-26T12:14:05;8.40;;;2.55;;
3997;SDS011;61314;53.444;9.902;2023-04-26T12:16:35;4.95;;;2.58;;
3997;SDS011;61314;53.444;9.902;2023-04-26T12:19:05;4.80;;;2.15;;
3997;SDS011;61314;53.444;9.902;2023-04-26T12:21:39;8.43;;;2.63;;
3997;SDS011;61314;53.444;9.902;2023-04-26T12:24:07;11.00;;;2.50;;
3997;SDS011;61314;53.444;9.902;2023-04-26T12:26:44;9.30;;;2.50;;
3997;SDS011;61314;53.444;9.902;2023-04-26T12:29:11;6.65;;;2.33;;
3997;SDS011;61314;53.444;9.902;2023-04-26T12:31:38;3.65;;;1.90;;
3997;SDS011;61314;53.444;9.902;2023-04-26T12:34:04;6.43;;;2.53;;
3997;SDS011;61314;53.444;9.902;2023-04-26T12:36:31;7.97;;;2.33;;
3997;SDS011;61314;53.444;9.902;2023-04-26T12:38:58;4.63;;;1.58;;
3997;SDS011;61314;53.444;9.902;2023-04-26T12:41:27;1.98;;;1.35;;
3997;SDS011;61314;53.444;9.902;2023-04-26T12:43:54;7.00;;;1.83;;
3997;SDS011;61314;53.444;9.902;2023-04-26T12:46:20;3.35;;;1.58;;
3997;SDS011;61314;53.444;9.902;2023-04-26T12:48:47;5.93;;;1.57;;
3997;SDS011;61314;53.444;9.902;2023-04-26T12:51:14;6.60;;;1.42;;
3997;SDS011;61314;53.444;9.902;2023-04-26T12:53:40;5.18;;;2.33;;
3997;SDS011;61314;53.444;9.902;2023-04-26T12:56:07;7.30;;;1.60;;
3997;SDS011;61314;53.444;9.902;2023-04-26T12:58:34;4.55;;;1.20;;
3997;SDS011;61314;53.444;9.902;2023-04-26T13:01:01;6.05;;;1.67;;
3997;SDS011;61314;53.444;9.902;2023-04-26T13:03:28;3.53;;;1.30;;
3997;SDS011;61314;53.444;9.902;2023-04-26T13:05:56;3.58;;;1.00;;
3997;SDS011;61314;53.444;9.902;2023-04-26T13:08:23;4.25;;;1.17;;
3997;SDS011;61314;53.444;9.902;2023-04-26T13:10:50;4.47;;;1.40;;
3997;SDS011;61314;53.444;9.902;2023-04-26T13:13:17;3.47;;;1.40;;
3997;SDS011;61314;53.444;9.902;2023-04-26T13:15:51;9.15;;;1.30;;
3997;SDS011;61314;53.444;9.902;2023-04-26T13:18:18;2.65;;;1.25;;
3997;SDS011;61314;53.444;9.902;2023-04-26T13:20:45;8.83;;;1.53;;
3997;SDS011;61314;53.444;9.902;2023-04-26T13:23:12;6.35;;;2.33;;
3997;SDS011;61314;53.444;9.902;2023-04-26T13:25:40;6.83;;;2.27;;
3997;SDS011;61314;53.444;9.902;2023-04-26T13:28:08;7.67;;;1.77;;
3997;SDS011;61314;53.444;9.902;2023-04-26T13:30:35;3.30;;;1.37;;
3997;SDS011;61314;53.444;9.902;2023-04-26T13:33:02;4.00;;;1.20;;
3997;SDS011;61314;53.444;9.902;2023-04-26T13:35:29;4.80;;;2.30;;
3997;SDS011;61314;53.444;9.902;2023-04-26T13:37:56;13.27;;;2.60;;
3997;SDS011;61314;53.444;9.902;2023-04-26T13:40:23;3.63;;;1.43;;
3997;SDS011;61314;53.444;9.902;2023-04-26T13:42:49;5.63;;;1.67;;
3997;SDS011;61314;53.444;9.902;2023-04-26T13:45:16;5.32;;;1.90;;
3997;SDS011;61314;53.444;9.902;2023-04-26T13:47:44;7.10;;;1.50;;
3997;SDS011;61314;53.444;9.902;2023-04-26T13:50:11;3.53;;;1.20;;
3997;SDS011;61314;53.444;9.902;2023-04-26T13:52:38;2.90;;;1.70;;
3997;SDS011;61314;53.444;9.902;2023-04-26T13:55:04;5.03;;;1.85;;
3997;SDS011;61314;53.444;9.902;2023-04-26T13:57:31;5.90;;;1.55;;
3997;SDS011;61314;53.444;9.902;2023-04-26T13:59:58;12.33;;;2.23;;
3997;SDS011;61314;53.444;9.902;2023-04-26T14:02:24;3.87;;;2.33;;
3997;SDS011;61314;53.444;9.902;2023-04-26T14:04:51;5.50;;;2.10;;
3997;SDS011;61314;53.444;9.902;2023-04-26T14:07:18;7.25;;;1.80;;
3997;SDS011;61314;53.444;9.902;2023-04-26T14:09:46;5.68;;;1.75;;
3997;SDS011;61314;53.444;9.902;2023-04-26T14:12:12;3.80;;;1.90;;
3997;SDS011;61314;53.444;9.902;2023-04-26T14:14:39;5.40;;;1.47;;
3997;SDS011;61314;53.444;9.902;2023-04-26T14:17:05;2.87;;;1.87;;
3997;SDS011;61314;53.444;9.902;2023-04-26T14:19:32;3.70;;;1.50;;
3997;SDS011;61314;53.444;9.902;2023-04-26T14:21:59;4.50;;;2.20;;
3997;SDS011;61314;53.444;9.902;2023-04-26T14:24:25;12.07;;;2.00;;
3997;SDS011;61314;53.444;9.902;2023-04-26T14:26:52;4.70;;;1.50;;
3997;SDS011;61314;53.444;9.902;2023-04-26T14:29:19;6.87;;;1.53;;
3997;SDS011;61314;53.444;9.902;2023-04-26T14:31:45;14.15;;;1.63;;
3997;SDS011;61314;53.444;9.902;2023-04-26T14:34:12;11.60;;;2.38;;
3997;SDS011;61314;53.444;9.902;2023-04-26T14:36:38;6.37;;;1.93;;
3997;SDS011;61314;53.444;9.902;2023-04-26T14:39:05;4.97;;;1.43;;
3997;SDS011;61314;53.444;9.902;2023-04-26T14:41:32;8.90;;;2.00;;
3997;SDS011;61314;53.444;9.902;2023-04-26T14:43:58;5.22;;;1.40;;
3997;SDS011;61314;53.444;9.902;2023-04-26T14:46:25;6.38;;;1.73;;
3997;SDS011;61314;53.444;9.902;2023-04-26T14:48:52;4.83;;;1.40;;
3997;SDS011;61314;53.444;9.902;2023-04-26T14:51:18;5.38;;;1.85;;
3997;SDS011;61314;53.444;9.902;2023-04-26T14:53:45;3.95;;;1.75;;
3997;SDS011;61314;53.444;9.902;2023-04-26T14:56:12;1.40;;;1.23;;
3997;SDS011;61314;53.444;9.902;2023-04-26T14:58:38;7.13;;;1.67;;
3997;SDS011;61314;53.444;9.902;2023-04-26T15:01:05;5.80;;;1.70;;
3997;SDS011;61314;53.444;9.902;2023-04-26T15:03:32;4.80;;;1.30;;
3997;SDS011;61314;53.444;9.902;2023-04-26T15:05:59;10.90;;;1.53;;
3997;SDS011;61314;53.444;9.902;2023-04-26T15:08:25;5.38;;;2.65;;
3997;SDS011;61314;53.444;9.902;2023-04-26T15:10:52;7.80;;;2.13;;
3997;SDS011;61314;53.444;9.902;2023-04-26T15:13:19;5.75;;;1.48;;
3997;SDS011;61314;53.444;9.902;2023-04-26T15:15:45;3.88;;;1.83;;
3997;SDS011;61314;53.444;9.902;2023-04-26T15:18:12;12.50;;;2.90;;
3997;SDS011;61314;53.444;9.902;2023-04-26T15:20:39;6.53;;;2.25;;
3997;SDS011;61314;53.444;9.902;2023-04-26T15:23:06;7.10;;;1.93;;
3997;SDS011;61314;53.444;9.902;2023-04-26T15:25:34;2.63;;;1.70;;